Time;durP1;ratioP1;P1;durP2;ratioP2;P2;SDS_P1;SDS_P2;PMS_P1;PMS_P2;Temp;Humidity;BMP_temperature;BMP_pressure;BME280_temperature;BME280_humidity;BME280_pressure;Samples;Min_cycle;Max_cycle;Signal;HPM_P1;HPM_P2
2021/09/12 00:04:45;;;;;;;15.15;13.55;;;24.00;51.50;;;;;;4734968;55;20997;-33
2021/09/12 00:09:46;;;;;;;14.90;13.02;;;24.00;51.50;;;;;;4760517;55;21009;-33
2021/09/12 00:14:47;;;;;;;15.85;13.85;;;24.00;51.50;;;;;;4731328;59;21574;-33
2021/09/12 00:19:48;;;;;;;14.77;13.35;;;24.00;51.50;;;;;;4734674;55;21555;-32
2021/09/12 00:24:49;;;;;;;14.55;13.05;;;24.00;51.40;;;;;;4735422;54;21042;-33
2021/09/12 00:29:49;;;;;;;14.38;12.93;;;24.00;51.40;;;;;;4737682;54;21070;-33
2021/09/12 00:34:50;;;;;;;13.68;12.30;;;24.00;51.40;;;;;;4731576;58;21009;-33
2021/09/12 00:39:51;;;;;;;14.32;12.93;;;24.00;51.40;;;;;;4731700;58;21013;-30
2021/09/12 00:44:52;;;;;;;13.82;12.35;;;24.00;51.40;;;;;;4768204;55;21005;-29
2021/09/12 00:49:53;;;;;;;14.20;12.70;;;24.00;51.50;;;;;;4764852;55;21021;-33
2021/09/12 00:54:55;;;;;;;14.45;12.80;;;24.00;51.40;;;;;;4761652;54;21097;-32
2021/09/12 00:59:57;;;;;;;13.57;12.18;;;24.00;51.40;;;;;;4766380;54;21089;-33
2021/09/12 01:04:57;;;;;;;13.82;12.43;;;24.00;51.40;;;;;;4743577;54;21088;-27
2021/09/12 01:09:58;;;;;;;13.43;12.05;;;24.00;51.40;;;;;;4742251;55;21009;-30
2021/09/12 01:14:59;;;;;;;13.85;11.50;;;23.90;51.30;;;;;;4736255;55;21069;-33
2021/09/12 01:20:00;;;;;;;13.75;12.27;;;24.00;51.40;;;;;;4790294;55;21021;-32
2021/09/12 01:25:01;;;;;;;12.93;11.60;;;24.00;51.40;;;;;;4772702;54;21025;-31
2021/09/12 01:30:04;;;;;;;13.10;11.75;;;24.00;51.40;;;;;;4790051;54;21081;-34
2021/09/12 01:35:07;;;;;;;12.82;11.52;;;23.90;51.30;;;;;;4761448;54;21500;-32
2021/09/12 01:40:09;;;;;;;13.23;11.93;;;24.00;51.40;;;;;;4842476;54;21096;-32
2021/09/12 01:45:10;;;;;;;13.45;12.05;;;24.00;51.30;;;;;;4731547;59;21029;-32
2021/09/12 01:50:12;;;;;;;12.65;11.35;;;24.00;51.30;;;;;;4755782;54;21506;-33
2021/09/12 01:55:13;;;;;;;12.57;11.38;;;24.00;51.30;;;;;;4755700;54;21009;-30
2021/09/12 02:00:14;;;;;;;12.40;11.20;;;23.90;51.20;;;;;;4757457;54;21029;-31
2021/09/12 02:05:15;;;;;;;12.43;11.18;;;24.00;51.30;;;;;;4736970;54;21017;-31
2021/09/12 02:10:16;;;;;;;12.48;11.23;;;23.90;51.30;;;;;;4755580;55;21005;-33
2021/09/12 02:15:17;;;;;;;13.25;11.85;;;23.90;51.20;;;;;;4744646;54;21092;-33
2021/09/12 02:20:17;;;;;;;12.95;11.50;;;23.90;51.20;;;;;;4757954;55;21033;-25
2021/09/12 02:25:18;;;;;;;12.70;11.40;;;24.00;51.30;;;;;;4755410;55;21077;-33
2021/09/12 02:30:19;;;;;;;12.10;10.90;;;23.90;51.20;;;;;;4731053;59;21013;-33
2021/09/12 02:35:20;;;;;;;12.15;10.95;;;23.90;51.20;;;;;;4732967;55;21013;-31
2021/09/12 02:40:21;;;;;;;11.30;10.20;;;23.90;51.30;;;;;;4733325;55;21025;-32
2021/09/12 02:45:22;;;;;;;12.10;10.90;;;23.90;51.20;;;;;;4734037;55;21108;-32
2021/09/12 02:50:23;;;;;;;11.57;10.48;;;23.90;51.20;;;;;;4731448;59;21052;-29
2021/09/12 02:55:24;;;;;;;11.48;10.38;;;23.90;51.20;;;;;;4734509;55;21021;-32
2021/09/12 03:00:24;;;;;;;11.48;10.32;;;23.90;51.20;;;;;;4746410;54;21037;-32
2021/09/12 03:05:27;;;;;;;11.30;10.20;;;23.90;51.20;;;;;;4736030;55;21041;-35
2021/09/12 03:10:28;;;;;;;11.07;9.98;;;23.90;51.20;;;;;;4735954;55;21021;-34
2021/09/12 03:15:29;;;;;;;12.07;10.85;;;23.90;51.10;;;;;;4730813;59;21022;-31
2021/09/12 03:20:30;;;;;;;11.12;9.85;;;23.90;51.20;;;;;;4749170;55;21585;-31
2021/09/12 03:25:31;;;;;;;11.55;10.40;;;23.90;51.10;;;;;;4733175;55;21053;-33
2021/09/12 03:30:32;;;;;;;11.05;9.95;;;23.90;51.20;;;;;;4733282;55;21017;-34
2021/09/12 03:35:33;;;;;;;10.93;9.82;;;23.90;51.10;;;;;;4731702;59;21009;-31
2021/09/12 03:40:34;;;;;;;10.45;9.45;;;23.90;51.10;;;;;;4734468;55;21492;-33
2021/09/12 03:45:35;;;;;;;11.23;10.05;;;23.90;51.10;;;;;;4743099;55;21013;-34
2021/09/12 03:50:36;;;;;;;10.35;9.35;;;23.90;51.10;;;;;;4735087;55;21073;-32
2021/09/12 03:55:37;;;;;;;10.98;9.88;;;23.90;51.10;;;;;;4735279;55;21527;-33
2021/09/12 04:00:38;;;;;;;12.07;9.23;;;23.90;51.10;;;;;;4760324;55;21021;-34
2021/09/12 04:05:38;;;;;;;10.50;9.43;;;23.90;51.10;;;;;;4788004;55;21080;-31
2021/09/12 04:10:39;;;;;;;10.70;9.60;;;23.90;51.00;;;;;;4739166;55;21535;-32
2021/09/12 04:15:40;;;;;;;10.57;9.55;;;23.90;51.00;;;;;;4736499;55;21005;-34
2021/09/12 04:20:41;;;;;;;10.23;8.98;;;23.90;51.00;;;;;;4731768;59;21005;-34
2021/09/12 04:25:42;;;;;;;10.10;8.98;;;23.80;50.50;;;;;;4731293;55;21085;-31
2021/09/12 04:30:43;;;;;;;10.13;9.13;;;23.90;50.90;;;;;;4764798;55;21033;-32
2021/09/12 04:35:44;;;;;;;9.80;8.93;;;23.90;50.90;;;;;;4738739;55;22276;-33
2021/09/12 04:40:44;;;;;;;9.80;8.82;;;23.90;50.90;;;;;;4756971;55;21024;-35
2021/09/12 04:45:45;;;;;;;10.32;9.10;;;23.80;50.80;;;;;;4739620;55;21503;-33
2021/09/12 04:50:46;;;;;;;9.88;8.90;;;23.90;50.80;;;;;;4732066;55;21061;-36
2021/09/12 04:55:47;;;;;;;9.90;8.98;;;23.80;50.70;;;;;;4732905;55;21062;-29
2021/09/12 05:00:48;;;;;;;9.40;8.50;;;23.80;50.70;;;;;;4759909;55;21013;-34
2021/09/12 05:05:49;;;;;;;9.70;8.80;;;23.80;50.70;;;;;;4744817;55;21017;-33
2021/09/12 05:10:50;;;;;;;9.95;8.88;;;23.80;50.70;;;;;;4732990;54;21602;-33
2021/09/12 05:15:51;;;;;;;9.43;8.52;;;23.80;50.70;;;;;;4741957;55;20993;-33
2021/09/12 05:20:51;;;;;;;9.85;8.95;;;23.80;50.60;;;;;;4741645;55;21051;-34
2021/09/12 05:25:52;;;;;;;10.00;9.00;;;23.80;50.60;;;;;;4768575;55;21018;-31
2021/09/12 05:30:53;;;;;;;9.85;8.85;;;23.80;50.60;;;;;;4747092;55;21015;-29
2021/09/12 05:35:54;;;;;;;9.38;8.48;;;23.80;50.60;;;;;;4743481;55;21029;-32
2021/09/12 05:40:55;;;;;;;9.23;8.32;;;23.80;50.60;;;;;;4760824;55;21017;-25
2021/09/12 05:45:56;;;;;;;9.38;8.45;;;23.80;50.60;;;;;;4744104;55;21487;-34
2021/09/12 05:50:56;;;;;;;9.55;8.65;;;23.80;50.60;;;;;;4732177;55;21479;-33
2021/09/12 05:55:58;;;;;;;9.98;8.70;;;23.70;50.50;;;;;;4754525;55;20997;-31
2021/09/12 06:00:59;;;;;;;9.23;8.38;;;23.80;50.50;;;;;;4769805;55;22206;-34
2021/09/12 06:06:00;;;;;;;9.40;8.43;;;23.70;50.50;;;;;;4768877;55;21117;-34
2021/09/12 06:11:01;;;;;;;8.77;7.87;;;23.80;50.50;;;;;;4745045;54;20997;-30
2021/09/12 06:16:02;;;;;;;9.52;8.63;;;23.80;50.50;;;;;;4753695;54;21539;-28
2021/09/12 06:21:04;;;;;;;9.27;8.38;;;23.70;50.40;;;;;;4732089;55;21057;-34
2021/09/12 06:26:05;;;;;;;9.45;8.52;;;23.80;50.50;;;;;;4730985;55;21545;-28
2021/09/12 06:31:06;;;;;;;9.45;8.50;;;23.80;50.50;;;;;;4749108;55;21001;-36
2021/09/12 06:36:06;;;;;;;9.43;8.48;;;23.70;50.40;;;;;;4792273;55;21174;-34
2021/09/12 06:41:07;;;;;;;9.98;8.98;;;23.70;50.40;;;;;;4730499;59;21510;-26
2021/09/12 06:46:08;;;;;;;9.38;8.40;;;23.70;50.40;;;;;;4731376;55;21021;-27
2021/09/12 06:51:11;;;;;;;9.90;8.90;;;23.70;50.40;;;;;;4735734;55;21043;-32
2021/09/12 06:56:11;;;;;;;9.38;8.38;;;23.80;50.50;;;;;;4734591;55;20998;-34
2021/09/12 07:01:12;;;;;;;10.75;8.63;;;23.70;50.40;;;;;;4788570;55;21016;-28
2021/09/12 07:06:13;;;;;;;9.30;8.30;;;23.70;50.50;;;;;;4753718;55;21507;-35
2021/09/12 07:11:14;;;;;;;9.60;8.40;;;23.70;50.40;;;;;;4736066;55;21069;-32
2021/09/12 07:16:15;;;;;;;9.52;8.50;;;23.70;50.40;;;;;;4732825;59;21496;-36
2021/09/12 07:21:16;;;;;;;9.40;8.50;;;23.70;50.40;;;;;;4750744;55;21089;-33
2021/09/12 07:26:17;;;;;;;9.43;8.52;;;23.70;50.40;;;;;;4731942;55;21029;-31
2021/09/12 07:31:17;;;;;;;9.50;8.57;;;23.70;50.50;;;;;;4731746;59;21032;-33
2021/09/12 07:36:18;;;;;;;9.18;8.27;;;23.70;50.50;;;;;;4745850;55;21557;-34
2021/09/12 07:41:19;;;;;;;10.07;8.98;;;23.70;50.40;;;;;;4748490;55;21108;-32
2021/09/12 07:46:20;;;;;;;9.88;8.88;;;23.70;50.50;;;;;;4745606;55;21120;-30
2021/09/12 07:51:20;;;;;;;9.75;8.85;;;23.70;50.50;;;;;;4731689;59;21050;-34
2021/09/12 07:56:21;;;;;;;9.77;8.77;;;23.70;50.50;;;;;;4731440;59;21888;-33
2021/09/12 08:01:22;;;;;;;10.07;9.07;;;23.70;50.50;;;;;;4732233;59;22319;-32
2021/09/12 08:06:23;;;;;;;10.35;9.27;;;23.70;50.50;;;;;;4748033;55;21008;-32
2021/09/12 08:11:24;;;;;;;11.27;9.10;;;23.70;50.50;;;;;;4733429;55;21025;-34
2021/09/12 08:16:24;;;;;;;11.02;9.65;;;23.70;50.50;;;;;;4751820;55;21020;-32
2021/09/12 08:21:25;;;;;;;12.27;9.93;;;23.70;50.60;;;;;;4751715;55;21539;-29
2021/09/12 08:26:26;;;;;;;12.30;9.57;;;23.70;50.60;;;;;;4752497;55;21029;-31
2021/09/12 08:31:27;;;;;;;11.65;9.35;;;23.70;50.70;;;;;;4742454;55;21120;-30
2021/09/12 08:36:28;;;;;;;12.02;10.02;;;23.70;50.60;;;;;;4751124;55;21100;-35
2021/09/12 08:41:30;;;;;;;11.05;9.40;;;23.70;50.60;;;;;;4731906;59;21769;-34
2021/09/12 08:46:34;;;;;;;13.93;10.52;;;23.70;50.70;;;;;;4745972;55;21530;-32
2021/09/12 08:51:35;;;;;;;12.13;10.85;;;23.70;50.70;;;;;;4741651;55;21381;-34
2021/09/12 08:56:36;;;;;;;11.40;10.18;;;23.70;50.70;;;;;;4747793;54;21033;-34
2021/09/12 09:01:37;;;;;;;11.60;10.40;;;23.70;50.80;;;;;;4734774;55;21001;-34
2021/09/12 09:06:38;;;;;;;11.50;10.35;;;23.70;50.70;;;;;;4741441;54;21511;-32
2021/09/12 09:11:40;;;;;;;11.88;10.65;;;23.70;50.80;;;;;;4731389;59;21013;-36
2021/09/12 09:16:42;;;;;;;11.77;10.50;;;23.70;50.70;;;;;;4783205;54;21061;-33
2021/09/12 09:21:46;;;;;;;13.48;10.88;;;23.70;50.80;;;;;;4749578;54;21104;-36
2021/09/12 09:26:55;;;;;;;11.57;10.38;;;23.70;50.80;;;;;;4734250;54;21077;-32
2021/09/12 09:32:08;;;;;;;11.45;10.27;;;23.70;50.90;;;;;;4783760;55;21025;-34
2021/09/12 09:37:14;;;;;;;12.20;10.95;;;23.70;50.80;;;;;;4737418;54;21024;-26
2021/09/12 09:42:40;;;;;;;15.32;10.90;;;23.70;51.50;;;;;;4763356;54;21013;-34
2021/09/12 09:47:47;;;;;;;12.65;11.07;;;23.70;50.90;;;;;;4771494;54;21088;-30
2021/09/12 09:52:51;;;;;;;11.87;10.67;;;23.70;50.90;;;;;;4749633;54;21105;-34
2021/09/12 09:57:53;;;;;;;11.77;10.57;;;23.70;50.90;;;;;;4787463;54;21562;-41
2021/09/12 10:02:54;;;;;;;12.43;10.52;;;23.70;50.90;;;;;;4731226;58;21093;-33
2021/09/12 10:07:55;;;;;;;12.18;10.88;;;23.70;50.90;;;;;;4731565;58;21563;-34
2021/09/12 10:13:00;;;;;;;11.38;10.18;;;23.70;50.90;;;;;;4735960;55;21497;-30
2021/09/12 10:18:02;;;;;;;12.50;11.20;;;23.70;50.90;;;;;;4757132;54;20997;-33
2021/09/12 10:23:12;;;;;;;12.25;10.23;;;23.70;51.00;;;;;;4758462;54;21045;-35
2021/09/12 10:28:13;;;;;;;12.13;10.45;;;23.70;51.00;;;;;;4746036;54;21025;-35
2021/09/12 10:33:19;;;;;;;11.60;10.40;;;23.70;51.00;;;;;;4746302;54;21595;-34
2021/09/12 10:38:41;;;;;;;11.52;10.32;;;23.70;51.00;;;;;;4742648;54;20965;-33
2021/09/12 10:43:44;;;;;;;11.93;10.73;;;23.70;51.00;;;;;;4755176;54;21448;-29
2021/09/12 10:49:03;;;;;;;13.07;11.38;;;23.70;51.00;;;;;;4739452;54;21599;-33
2021/09/12 10:54:04;;;;;;;12.35;11.15;;;23.80;51.10;;;;;;4778270;54;21001;-35
2021/09/12 10:59:13;;;;;;;12.82;11.50;;;23.70;51.10;;;;;;4743924;54;21052;-31
2021/09/12 11:04:16;;;;;;;12.65;10.98;;;23.80;51.10;;;;;;4737108;54;20998;-31
2021/09/12 11:09:23;;;;;;;12.88;11.57;;;23.70;51.10;;;;;;4733766;54;21511;-32
2021/09/12 11:14:24;;;;;;;;;;;23.80;51.10;;;;;;4747316;54;21571;-34
2021/09/12 11:19:25;;;;;;;12.98;11.63;;;23.80;51.10;;;;;;4734508;55;20357;-35
2021/09/12 11:24:27;;;;;;;13.27;11.88;;;23.80;51.20;;;;;;4749663;55;21065;-33
2021/09/12 11:29:39;;;;;;;14.50;12.65;;;23.70;51.10;;;;;;4766599;54;21082;-31
2021/09/12 11:34:49;;;;;;;13.43;12.02;;;23.70;51.10;;;;;;4731700;54;20989;-32
2021/09/12 11:39:56;;;;;;;13.95;12.32;;;23.70;51.10;;;;;;4743292;54;21551;-33
2021/09/12 11:44:57;;;;;;;14.23;12.50;;;23.80;51.10;;;;;;4744972;55;21598;-32
2021/09/12 11:50:04;;;;;;;13.98;12.57;;;23.80;51.20;;;;;;4790629;55;21045;-32
2021/09/12 11:55:26;;;;;;;15.18;13.30;;;23.80;51.20;;;;;;4731602;59;21057;-29
2021/09/12 12:00:28;;;;;;;14.10;12.63;;;23.80;51.10;;;;;;4741888;54;21464;-31
2021/09/12 12:05:31;;;;;;;13.93;12.57;;;23.80;51.10;;;;;;4732555;55;21085;-31
2021/09/12 12:10:35;;;;;;;15.23;13.62;;;23.80;51.10;;;;;;4763163;54;21491;-31
2021/09/12 12:15:38;;;;;;;14.45;12.95;;;23.80;51.10;;;;;;4751842;54;21124;-32
2021/09/12 12:20:41;;;;;;;15.00;13.50;;;23.80;51.20;;;;;;4731581;59;21476;-29
2021/09/12 12:25:44;;;;;;;15.35;13.77;;;23.80;51.10;;;;;;4749676;54;21090;-30
2021/09/12 12:30:46;;;;;;;15.45;13.85;;;23.80;51.10;;;;;;4740176;54;21685;-33
2021/09/12 12:42:46;;;;;;;16.45;14.70;;;23.80;51.10;;;;;;4744536;54;21041;-29
2021/09/12 12:47:48;;;;;;;16.17;14.43;;;23.80;51.10;;;;;;4746661;54;21101;-34
2021/09/12 12:53:09;;;;;;;16.60;14.52;;;23.80;51.10;;;;;;4761239;54;20993;-35
2021/09/12 12:58:14;;;;;;;17.30;15.55;;;23.80;51.10;;;;;;4750118;54;21487;-32
2021/09/12 13:03:16;;;;;;;16.33;14.63;;;23.80;51.10;;;;;;4748756;54;21990;-33
2021/09/12 13:08:19;;;;;;;16.50;14.57;;;23.80;51.10;;;;;;4792082;54;21622;-34
2021/09/12 13:13:20;;;;;;;16.42;14.73;;;23.80;51.10;;;;;;4744336;54;21045;-32
2021/09/12 13:18:21;;;;;;;16.45;14.75;;;23.80;51.10;;;;;;4750851;55;21510;-32
2021/09/12 13:23:22;;;;;;;18.67;16.45;;;23.80;51.10;;;;;;4737175;55;21057;-28
2021/09/12 13:28:25;;;;;;;18.00;15.55;;;23.80;51.10;;;;;;4743732;54;21062;-33
2021/09/12 13:33:31;;;;;;;17.42;15.55;;;23.80;51.10;;;;;;4741280;54;21571;-32
2021/09/12 13:38:31;;;;;;;17.52;15.63;;;23.80;51.10;;;;;;4731279;59;21598;-32
2021/09/12 13:43:32;;;;;;;17.73;15.85;;;23.80;51.10;;;;;;4741690;55;21037;-33
2021/09/12 13:48:33;;;;;;;18.55;16.52;;;23.90;51.10;;;;;;4733829;55;21018;-29
2021/09/12 13:53:34;;;;;;;17.73;15.38;;;23.90;51.20;;;;;;4753836;55;21152;-31
2021/09/12 13:58:35;;;;;;;18.48;16.58;;;23.90;51.10;;;;;;4731316;59;21060;-34
2021/09/12 14:03:35;;;;;;;17.67;15.77;;;23.90;51.10;;;;;;4739101;55;21491;-32
2021/09/12 14:08:36;;;;;;;18.30;16.35;;;23.80;51.00;;;;;;4738944;55;21040;-34
2021/09/12 14:13:37;;;;;;;17.15;15.38;;;23.90;51.10;;;;;;4738247;55;21021;-33
2021/09/12 14:18:38;;;;;;;18.08;16.25;;;23.80;51.00;;;;;;4755127;55;21005;-33
2021/09/12 14:23:39;;;;;;;18.25;16.27;;;23.90;51.00;;;;;;4764370;55;21579;-34
2021/09/12 14:28:39;;;;;;;18.27;16.48;;;23.90;51.00;;;;;;4780336;55;21509;-34
2021/09/12 14:33:43;;;;;;;18.55;16.60;;;23.90;51.00;;;;;;4749685;55;21021;-33
2021/09/12 14:38:44;;;;;;;18.92;16.37;;;23.90;51.00;;;;;;4731212;59;21061;-28
2021/09/12 14:43:45;;;;;;;19.12;17.08;;;23.90;51.00;;;;;;4735689;55;21129;-34
2021/09/12 14:48:46;;;;;;;18.48;16.58;;;23.90;51.00;;;;;;4734939;55;21104;-29
2021/09/12 14:53:47;;;;;;;19.50;17.45;;;23.90;50.90;;;;;;4757823;54;21132;-31
2021/09/12 14:58:48;;;;;;;19.50;17.37;;;23.90;50.90;;;;;;4735887;55;21122;-33
2021/09/12 15:03:48;;;;;;;18.48;16.48;;;23.90;50.90;;;;;;4746087;55;21038;-33
2021/09/12 15:08:49;;;;;;;19.73;16.90;;;23.90;50.90;;;;;;4739338;55;21483;-30
2021/09/12 15:13:50;;;;;;;17.77;15.85;;;23.90;50.90;;;;;;4788903;55;21080;-34
2021/09/12 15:18:51;;;;;;;19.45;17.40;;;23.90;50.90;;;;;;4731721;55;21044;-34
2021/09/12 15:23:51;;;;;;;18.87;16.77;;;23.90;50.90;;;;;;4739563;55;21602;-32
2021/09/12 15:28:53;;;;;;;19.12;17.17;;;23.90;50.80;;;;;;4730671;59;21512;-33
2021/09/12 15:33:55;;;;;;;19.10;17.10;;;23.90;50.80;;;;;;4731298;59;22007;-33
2021/09/12 15:38:57;;;;;;;19.37;17.37;;;23.90;50.90;;;;;;4768094;55;21491;-31
2021/09/12 15:43:58;;;;;;;18.75;16.85;;;23.90;50.80;;;;;;4763659;54;21009;-34
2021/09/12 15:48:58;;;;;;;18.27;16.37;;;23.90;50.80;;;;;;4778013;55;21013;-34
2021/09/12 15:54:00;;;;;;;17.70;15.80;;;23.90;50.80;;;;;;4737536;55;21002;-30
2021/09/12 15:59:00;;;;;;;19.52;17.42;;;23.90;50.80;;;;;;4764457;55;20994;-32
2021/09/12 16:04:01;;;;;;;19.00;16.95;;;23.90;50.80;;;;;;4731463;59;21077;-31
2021/09/12 16:09:02;;;;;;;19.33;17.23;;;23.90;50.80;;;;;;4737639;55;21093;-31
2021/09/12 16:14:04;;;;;;;19.37;17.37;;;23.90;50.80;;;;;;4754855;55;21159;-33
2021/09/12 16:19:05;;;;;;;18.83;16.73;;;23.90;50.80;;;;;;4731639;59;21021;-34
2021/09/12 16:24:06;;;;;;;19.02;17.02;;;23.90;50.70;;;;;;4738124;55;21037;-30
2021/09/12 16:29:07;;;;;;;18.60;16.70;;;23.90;50.70;;;;;;4749705;54;21029;-33
2021/09/12 16:34:07;;;;;;;18.00;16.20;;;24.00;50.80;;;;;;4747099;55;21014;-33
2021/09/12 16:39:08;;;;;;;19.10;17.17;;;23.90;50.70;;;;;;4733796;55;21022;-31
2021/09/12 16:44:10;;;;;;;18.10;16.20;;;23.90;50.70;;;;;;4755757;54;21045;-32
2021/09/12 16:49:11;;;;;;;17.98;16.23;;;23.90;50.70;;;;;;4787744;55;21512;-32
2021/09/12 16:54:12;;;;;;;17.37;15.57;;;23.90;50.80;;;;;;4755251;55;21126;-32
2021/09/12 16:59:13;;;;;;;19.00;16.98;;;23.90;50.70;;;;;;4739834;55;21009;-34
2021/09/12 17:04:14;;;;;;;18.98;16.98;;;23.90;50.70;;;;;;4731457;59;21021;-35
2021/09/12 17:09:15;;;;;;;18.98;17.08;;;23.90;50.70;;;;;;4730104;55;21572;-33
2021/09/12 17:14:16;;;;;;;19.33;17.33;;;23.90;50.70;;;;;;4734093;55;21055;-30
2021/09/12 17:19:16;;;;;;;17.67;15.82;;;23.90;50.70;;;;;;4742611;54;21025;-35
2021/09/12 17:24:19;;;;;;;18.00;16.08;;;23.90;50.70;;;;;;4746811;54;21057;-31
2021/09/12 17:29:20;;;;;;;19.40;17.40;;;24.00;50.80;;;;;;4752921;54;21056;-34
2021/09/12 17:34:21;;;;;;;18.42;16.52;;;23.90;50.70;;;;;;4738491;55;21025;-32
2021/09/12 17:39:23;;;;;;;17.20;15.50;;;23.90;50.70;;;;;;4762405;55;21052;-31
2021/09/12 17:44:24;;;;;;;17.80;16.00;;;24.00;50.80;;;;;;4731523;59;21507;-30
2021/09/12 17:49:25;;;;;;;18.52;16.73;;;23.90;50.80;;;;;;4738845;55;21073;-35
2021/09/12 17:54:26;;;;;;;18.25;16.35;;;23.90;50.80;;;;;;4739521;55;21538;-33
2021/09/12 17:59:30;;;;;;;18.23;16.42;;;23.90;50.70;;;;;;4751607;55;21021;-32
2021/09/12 18:04:30;;;;;;;17.65;15.85;;;24.00;50.80;;;;;;4735912;55;21562;-31
2021/09/12 18:09:31;;;;;;;18.02;16.25;;;23.90;50.80;;;;;;4739414;55;21041;-35
2021/09/12 18:14:32;;;;;;;17.25;15.55;;;24.00;50.80;;;;;;4736168;54;21006;-34
2021/09/12 18:19:33;;;;;;;17.55;15.75;;;24.00;50.80;;;;;;4758851;55;21020;-34
2021/09/12 18:24:34;;;;;;;17.08;15.38;;;23.90;50.80;;;;;;4745796;55;21498;-35
2021/09/12 18:29:35;;;;;;;17.02;15.32;;;23.90;50.80;;;;;;4735298;54;20994;-33
2021/09/12 18:34:36;;;;;;;17.17;15.48;;;23.90;50.70;;;;;;4737629;54;21001;-33
2021/09/12 18:39:36;;;;;;;17.67;15.60;;;23.90;50.70;;;;;;4783678;54;21063;-31
2021/09/12 18:44:37;;;;;;;16.95;15.15;;;24.00;50.80;;;;;;4750336;55;21068;-30
2021/09/12 18:49:38;;;;;;;16.60;15.00;;;23.90;50.70;;;;;;4741982;55;21105;-33
2021/09/12 18:54:39;;;;;;;17.50;15.70;;;23.90;50.70;;;;;;4732860;54;21468;-32
2021/09/12 18:59:41;;;;;;;16.15;14.32;;;23.90;50.70;;;;;;4739911;55;21555;-35
2021/09/12 19:04:41;;;;;;;17.23;15.43;;;23.90;50.70;;;;;;4734441;54;21045;-33
2021/09/12 19:09:43;;;;;;;16.92;15.23;;;24.00;50.70;;;;;;4733573;54;21025;-33
2021/09/12 19:14:45;;;;;;;16.40;14.70;;;24.00;50.70;;;;;;4740917;54;21084;-33
2021/09/12 19:19:46;;;;;;;17.25;15.45;;;23.90;50.60;;;;;;4737588;55;21488;-35
2021/09/12 19:24:47;;;;;;;16.52;14.87;;;24.00;50.70;;;;;;4730622;58;21151;-35
2021/09/12 19:29:48;;;;;;;16.55;14.85;;;23.90;50.60;;;;;;4741848;55;21575;-32
2021/09/12 19:34:49;;;;;;;15.88;14.38;;;23.90;50.70;;;;;;4741807;55;21017;-33
2021/09/12 19:39:50;;;;;;;16.30;14.60;;;24.00;50.60;;;;;;4758773;54;21001;-32
2021/09/12 19:44:50;;;;;;;16.58;14.77;;;23.90;50.60;;;;;;4731892;59;21033;-35
2021/09/12 19:49:54;;;;;;;18.87;15.00;;;23.90;50.60;;;;;;4750071;55;21061;-33
2021/09/12 19:54:55;;;;;;;15.82;13.88;;;24.00;50.60;;;;;;4735900;55;21536;-34
2021/09/12 19:59:56;;;;;;;16.55;14.85;;;23.90;50.60;;;;;;4736236;55;21152;-33
2021/09/12 20:04:56;;;;;;;16.37;14.45;;;24.00;50.60;;;;;;4732285;59;21020;-33
2021/09/12 20:09:58;;;;;;;16.50;14.77;;;23.90;50.50;;;;;;4801856;55;21525;-31
2021/09/12 20:14:59;;;;;;;15.85;14.15;;;23.90;50.60;;;;;;4732038;59;21486;-33
2021/09/12 20:20:01;;;;;;;15.40;13.80;;;23.90;50.70;;;;;;4740243;55;21021;-32
2021/09/12 20:25:03;;;;;;;15.23;13.62;;;23.90;50.50;;;;;;4730910;55;21022;-31
2021/09/12 20:30:06;;;;;;;15.02;13.45;;;24.00;50.60;;;;;;4766051;54;21081;-31
2021/09/12 20:35:07;;;;;;;17.35;14.18;;;23.90;50.50;;;;;;4775778;54;21036;-34
2021/09/12 20:40:09;;;;;;;15.70;13.10;;;23.90;50.50;;;;;;4741618;54;21029;-34
2021/09/12 20:45:10;;;;;;;15.52;13.85;;;23.90;50.50;;;;;;4745519;54;21021;-35
2021/09/12 20:50:11;;;;;;;15.90;14.30;;;23.90;50.50;;;;;;4738851;54;21129;-33
2021/09/12 20:55:13;;;;;;;14.75;13.25;;;24.00;50.50;;;;;;4758503;55;21485;-35
2021/09/12 21:00:15;;;;;;;14.20;12.70;;;23.90;50.60;;;;;;4748793;55;22274;-33
2021/09/12 21:05:16;;;;;;;14.73;12.95;;;23.90;50.50;;;;;;4776166;54;21031;-34
2021/09/12 21:10:16;;;;;;;14.85;13.30;;;24.00;50.50;;;;;;4746700;55;21061;-34
2021/09/12 21:15:17;;;;;;;15.63;13.25;;;23.90;50.50;;;;;;4781766;55;21707;-33
2021/09/12 21:20:18;;;;;;;14.27;12.77;;;23.90;50.50;;;;;;4731379;59;21025;-31
2021/09/12 21:25:19;;;;;;;13.98;12.57;;;23.90;50.40;;;;;;4760358;54;21088;-32
2021/09/12 21:30:20;;;;;;;14.07;12.55;;;24.00;50.50;;;;;;4781414;55;21045;-32
2021/09/12 21:35:21;;;;;;;14.65;13.13;;;23.90;50.50;;;;;;4775688;54;21090;-28
2021/09/12 21:40:22;;;;;;;14.25;12.85;;;23.90;50.50;;;;;;4731868;59;20981;-32
2021/09/12 21:45:23;;;;;;;13.00;11.80;;;23.90;50.50;;;;;;4741277;55;21066;-34
2021/09/12 21:50:23;;;;;;;12.90;11.60;;;23.90;50.50;;;;;;4750619;55;21029;-31
2021/09/12 21:55:24;;;;;;;13.20;11.52;;;23.90;50.60;;;;;;4753188;54;21556;-33
2021/09/12 22:00:30;;;;;;;14.82;12.23;;;23.90;50.50;;;;;;4750433;55;21064;-33
2021/09/12 22:05:31;;;;;;;14.43;12.93;;;23.90;50.50;;;;;;4744445;54;21021;-31
2021/09/12 22:10:32;;;;;;;13.30;11.90;;;24.00;50.50;;;;;;4750367;55;21008;-34
2021/09/12 22:15:34;;;;;;;13.25;11.90;;;23.90;50.50;;;;;;4760583;55;20997;-34
2021/09/12 22:20:35;;;;;;;13.27;11.88;;;23.90;50.60;;;;;;4779238;55;21531;-33
2021/09/12 22:25:36;;;;;;;12.75;11.45;;;23.90;50.50;;;;;;4769375;54;21065;-32
2021/09/12 22:30:38;;;;;;;13.15;11.90;;;23.90;50.50;;;;;;4743893;55;21045;-31
2021/09/12 22:35:39;;;;;;;12.90;11.50;;;23.90;50.50;;;;;;4744816;55;21014;-33
2021/09/12 22:40:40;;;;;;;13.07;11.85;;;23.90;50.50;;;;;;4807477;55;21438;-33
2021/09/12 22:45:41;;;;;;;13.18;11.80;;;23.90;50.50;;;;;;4761453;54;21547;-32
2021/09/12 22:50:41;;;;;;;12.77;11.48;;;23.90;50.60;;;;;;4757537;55;21005;-35
2021/09/12 22:55:42;;;;;;;12.73;11.43;;;23.90;50.50;;;;;;4731791;59;21077;-33
2021/09/12 23:00:43;;;;;;;13.52;11.40;;;23.90;50.50;;;;;;4741219;54;21017;-31
2021/09/12 23:05:44;;;;;;;12.65;11.07;;;23.90;50.50;;;;;;4770823;55;21558;-34
2021/09/12 23:10:45;;;;;;;12.40;11.10;;;23.90;50.50;;;;;;4731134;59;21113;-33
2021/09/12 23:15:46;;;;;;;12.50;11.30;;;23.90;50.60;;;;;;4732653;54;21029;-33
2021/09/12 23:20:46;;;;;;;13.18;11.80;;;23.90;50.60;;;;;;4747545;55;21089;-31
2021/09/12 23:25:47;;;;;;;12.70;11.27;;;23.90;50.50;;;;;;4735967;54;21053;-34
2021/09/12 23:30:48;;;;;;;11.38;10.27;;;23.90;50.50;;;;;;4738986;55;21503;-31
2021/09/12 23:35:50;;;;;;;12.18;10.85;;;23.90;50.60;;;;;;4761781;54;21338;-31
2021/09/12 23:40:50;;;;;;;11.15;10.05;;;23.90;50.50;;;;;;4753485;55;21530;-33
2021/09/12 23:45:52;;;;;;;12.43;11.18;;;23.90;50.60;;;;;;4732012;58;21033;-33
2021/09/12 23:50:53;;;;;;;12.50;11.20;;;23.90;50.50;;;;;;4779822;55;21076;-33
2021/09/12 23:55:54;;;;;;;12.70;10.73;;;23.90;50.50;;;;;;4734130;55;21570;-35
